KMEB

Laurinburg-Maxton Airport

Maxton, North Carolina, USA
METAR KMEB 191852Z AUTO VRB03KT 10SM CLR 22/11 A3023 RMK AO2 SLP235 T02220111
Observed Flight Rules
Oct-19 @ 18:52 UTC (60 minutes ago) Visual Flight Rules
Wind Visibility Clouds
Variable at 3 knots 10 miles
  • Clear skies
Temperatures Readings
Current 22°C / 72°F
Dewpoint 11°C / 52°F
Humidity 50%
Altimeter 30.23" Hg
Pressure 1023.5 hPa
Elevation 67
METAR KMEB 191852Z AUTO VRB03KT 10SM CLR 22/11 A3023 RMK AO2 SLP235 T02220111
Observed Flight Rules
Oct-19 @ 18:52 UTC
(60 minutes ago)
VFR
Wind Visibility
Variable at 3 knots 10 miles
Clouds
  • Clear skies
Temperature Dewpoint
22°C / 72°F 11°C / 52°F
Humidity Altimeter Pressure
50% 30.23" Hg 1023.5 hPa